sensor_id;sensor_type;location;lat;lon;timestamp;P1;durP1;ratioP1;P2;durP2;ratioP2
18340;SDS011;9296;48.084;16.352;2023-09-18T00:00:49;10.57;;;9.48;;
18340;SDS011;9296;48.084;16.352;2023-09-18T00:03:16;10.32;;;9.23;;
18340;SDS011;9296;48.084;16.352;2023-09-18T00:05:44;11.60;;;9.45;;
18340;SDS011;9296;48.084;16.352;2023-09-18T00:08:14;11.38;;;8.85;;
18340;SDS011;9296;48.084;16.352;2023-09-18T00:10:41;9.85;;;8.63;;
18340;SDS011;9296;48.084;16.352;2023-09-18T00:13:09;10.90;;;9.50;;
18340;SDS011;9296;48.084;16.352;2023-09-18T00:15:36;10.52;;;9.43;;
18340;SDS011;9296;48.084;16.352;2023-09-18T00:18:03;10.32;;;9.27;;
18340;SDS011;9296;48.084;16.352;2023-09-18T00:20:31;11.25;;;9.18;;
18340;SDS011;9296;48.084;16.352;2023-09-18T00:22:58;11.13;;;9.90;;
18340;SDS011;9296;48.084;16.352;2023-09-18T00:25:26;11.48;;;9.77;;
18340;SDS011;9296;48.084;16.352;2023-09-18T00:27:53;10.55;;;9.38;;
18340;SDS011;9296;48.084;16.352;2023-09-18T00:30:20;13.55;;;9.48;;
18340;SDS011;9296;48.084;16.352;2023-09-18T00:32:48;10.63;;;9.63;;
18340;SDS011;9296;48.084;16.352;2023-09-18T00:35:16;11.00;;;9.68;;
18340;SDS011;9296;48.084;16.352;2023-09-18T00:37:43;11.30;;;10.10;;
18340;SDS011;9296;48.084;16.352;2023-09-18T00:40:10;11.05;;;9.95;;
18340;SDS011;9296;48.084;16.352;2023-09-18T00:42:39;11.30;;;10.07;;
18340;SDS011;9296;48.084;16.352;2023-09-18T00:45:07;10.20;;;9.20;;
18340;SDS011;9296;48.084;16.352;2023-09-18T00:47:34;11.90;;;9.88;;
18340;SDS011;9296;48.084;16.352;2023-09-18T00:50:02;10.43;;;9.32;;
18340;SDS011;9296;48.084;16.352;2023-09-18T00:52:30;11.32;;;9.60;;
18340;SDS011;9296;48.084;16.352;2023-09-18T00:54:58;11.27;;;9.93;;
18340;SDS011;9296;48.084;16.352;2023-09-18T00:57:27;11.13;;;9.82;;
18340;SDS011;9296;48.084;16.352;2023-09-18T00:59:56;11.60;;;10.20;;
18340;SDS011;9296;48.084;16.352;2023-09-18T01:02:23;11.50;;;9.48;;
18340;SDS011;9296;48.084;16.352;2023-09-18T01:04:51;10.48;;;9.38;;
18340;SDS011;9296;48.084;16.352;2023-09-18T01:07:18;12.35;;;9.73;;
18340;SDS011;9296;48.084;16.352;2023-09-18T01:09:46;10.75;;;9.68;;
18340;SDS011;9296;48.084;16.352;2023-09-18T01:12:14;11.23;;;10.07;;
18340;SDS011;9296;48.084;16.352;2023-09-18T01:14:47;12.43;;;10.02;;
18340;SDS011;9296;48.084;16.352;2023-09-18T01:17:17;13.23;;;10.82;;
18340;SDS011;9296;48.084;16.352;2023-09-18T01:19:45;11.23;;;9.98;;
18340;SDS011;9296;48.084;16.352;2023-09-18T01:22:13;10.50;;;9.40;;
18340;SDS011;9296;48.084;16.352;2023-09-18T01:24:43;10.38;;;9.38;;
18340;SDS011;9296;48.084;16.352;2023-09-18T01:27:13;12.75;;;9.70;;
18340;SDS011;9296;48.084;16.352;2023-09-18T01:29:41;10.77;;;9.68;;
18340;SDS011;9296;48.084;16.352;2023-09-18T01:32:09;12.80;;;10.15;;
18340;SDS011;9296;48.084;16.352;2023-09-18T01:34:36;10.23;;;9.23;;
18340;SDS011;9296;48.084;16.352;2023-09-18T01:37:06;11.13;;;9.40;;
18340;SDS011;9296;48.084;16.352;2023-09-18T01:39:34;11.43;;;9.73;;
18340;SDS011;9296;48.084;16.352;2023-09-18T01:42:03;10.70;;;9.60;;
18340;SDS011;9296;48.084;16.352;2023-09-18T01:44:31;10.43;;;9.32;;
18340;SDS011;9296;48.084;16.352;2023-09-18T01:46:59;10.73;;;9.60;;
18340;SDS011;9296;48.084;16.352;2023-09-18T01:49:28;10.77;;;9.25;;
18340;SDS011;9296;48.084;16.352;2023-09-18T01:51:56;12.00;;;9.50;;
18340;SDS011;9296;48.084;16.352;2023-09-18T01:54:23;10.05;;;9.05;;
18340;SDS011;9296;48.084;16.352;2023-09-18T01:56:50;13.90;;;9.27;;
18340;SDS011;9296;48.084;16.352;2023-09-18T01:59:19;10.95;;;9.80;;
18340;SDS011;9296;48.084;16.352;2023-09-18T02:01:47;11.80;;;10.32;;
18340;SDS011;9296;48.084;16.352;2023-09-18T02:04:14;11.55;;;9.82;;
18340;SDS011;9296;48.084;16.352;2023-09-18T02:06:42;11.38;;;10.25;;
18340;SDS011;9296;48.084;16.352;2023-09-18T02:09:09;11.73;;;9.25;;
18340;SDS011;9296;48.084;16.352;2023-09-18T02:11:36;10.75;;;9.57;;
18340;SDS011;9296;48.084;16.352;2023-09-18T02:14:04;11.93;;;10.52;;
18340;SDS011;9296;48.084;16.352;2023-09-18T02:16:33;11.23;;;9.77;;
18340;SDS011;9296;48.084;16.352;2023-09-18T02:19:01;11.65;;;10.45;;
18340;SDS011;9296;48.084;16.352;2023-09-18T02:21:28;10.82;;;9.07;;
18340;SDS011;9296;48.084;16.352;2023-09-18T02:23:55;10.95;;;9.65;;
18340;SDS011;9296;48.084;16.352;2023-09-18T02:26:23;10.55;;;9.45;;
18340;SDS011;9296;48.084;16.352;2023-09-18T02:28:51;12.45;;;10.25;;
18340;SDS011;9296;48.084;16.352;2023-09-18T02:31:18;10.88;;;9.07;;
18340;SDS011;9296;48.084;16.352;2023-09-18T02:33:47;12.73;;;9.80;;
18340;SDS011;9296;48.084;16.352;2023-09-18T02:36:14;10.93;;;9.52;;
18340;SDS011;9296;48.084;16.352;2023-09-18T02:38:42;11.93;;;10.00;;
18340;SDS011;9296;48.084;16.352;2023-09-18T02:41:09;11.52;;;10.20;;
18340;SDS011;9296;48.084;16.352;2023-09-18T02:43:36;11.40;;;10.20;;
18340;SDS011;9296;48.084;16.352;2023-09-18T02:46:04;12.55;;;10.82;;
18340;SDS011;9296;48.084;16.352;2023-09-18T02:48:31;14.05;;;10.60;;
18340;SDS011;9296;48.084;16.352;2023-09-18T02:51:00;12.45;;;10.23;;
18340;SDS011;9296;48.084;16.352;2023-09-18T02:53:27;11.18;;;9.93;;
18340;SDS011;9296;48.084;16.352;2023-09-18T02:55:55;11.50;;;9.80;;
18340;SDS011;9296;48.084;16.352;2023-09-18T02:58:23;12.15;;;10.25;;
18340;SDS011;9296;48.084;16.352;2023-09-18T03:00:51;10.40;;;9.27;;
18340;SDS011;9296;48.084;16.352;2023-09-18T03:03:18;11.38;;;10.27;;
18340;SDS011;9296;48.084;16.352;2023-09-18T03:05:45;10.68;;;9.57;;
18340;SDS011;9296;48.084;16.352;2023-09-18T03:08:14;12.23;;;10.35;;
18340;SDS011;9296;48.084;16.352;2023-09-18T03:10:42;11.32;;;10.15;;
18340;SDS011;9296;48.084;16.352;2023-09-18T03:13:14;10.93;;;9.82;;
18340;SDS011;9296;48.084;16.352;2023-09-18T03:15:44;13.23;;;10.30;;
18340;SDS011;9296;48.084;16.352;2023-09-18T03:18:12;11.88;;;10.00;;
18340;SDS011;9296;48.084;16.352;2023-09-18T03:20:40;11.82;;;10.55;;
18340;SDS011;9296;48.084;16.352;2023-09-18T03:23:07;11.40;;;9.65;;
18340;SDS011;9296;48.084;16.352;2023-09-18T03:25:36;12.35;;;10.52;;
18340;SDS011;9296;48.084;16.352;2023-09-18T03:28:22;12.82;;;10.70;;
18340;SDS011;9296;48.084;16.352;2023-09-18T03:30:49;12.98;;;10.75;;
18340;SDS011;9296;48.084;16.352;2023-09-18T03:33:16;12.48;;;10.43;;
18340;SDS011;9296;48.084;16.352;2023-09-18T03:35:47;13.82;;;11.10;;
18340;SDS011;9296;48.084;16.352;2023-09-18T03:38:14;12.18;;;10.43;;
18340;SDS011;9296;48.084;16.352;2023-09-18T03:40:43;12.45;;;10.70;;
18340;SDS011;9296;48.084;16.352;2023-09-18T03:43:10;12.18;;;10.93;;
18340;SDS011;9296;48.084;16.352;2023-09-18T03:45:38;13.73;;;11.68;;
18340;SDS011;9296;48.084;16.352;2023-09-18T03:48:06;12.93;;;11.50;;
18340;SDS011;9296;48.084;16.352;2023-09-18T03:50:33;15.07;;;12.52;;
18340;SDS011;9296;48.084;16.352;2023-09-18T03:53:00;13.88;;;11.55;;
18340;SDS011;9296;48.084;16.352;2023-09-18T03:55:27;13.93;;;12.13;;
18340;SDS011;9296;48.084;16.352;2023-09-18T03:57:56;13.27;;;11.88;;
18340;SDS011;9296;48.084;16.352;2023-09-18T04:00:23;14.95;;;13.02;;
18340;SDS011;9296;48.084;16.352;2023-09-18T04:02:51;17.17;;;12.95;;
18340;SDS011;9296;48.084;16.352;2023-09-18T04:05:18;15.13;;;12.57;;
18340;SDS011;9296;48.084;16.352;2023-09-18T04:07:45;15.38;;;13.27;;
18340;SDS011;9296;48.084;16.352;2023-09-18T04:10:13;15.23;;;12.98;;
18340;SDS011;9296;48.084;16.352;2023-09-18T04:12:44;15.90;;;13.15;;
18340;SDS011;9296;48.084;16.352;2023-09-18T04:15:14;16.08;;;13.52;;
18340;SDS011;9296;48.084;16.352;2023-09-18T04:17:42;15.05;;;13.02;;
18340;SDS011;9296;48.084;16.352;2023-09-18T04:20:10;16.40;;;12.77;;
18340;SDS011;9296;48.084;16.352;2023-09-18T04:22:41;16.58;;;13.70;;
18340;SDS011;9296;48.084;16.352;2023-09-18T04:25:09;16.52;;;13.80;;
18340;SDS011;9296;48.084;16.352;2023-09-18T04:27:36;16.23;;;13.68;;
18340;SDS011;9296;48.084;16.352;2023-09-18T04:30:04;17.02;;;13.80;;
18340;SDS011;9296;48.084;16.352;2023-09-18T04:32:32;17.92;;;14.45;;
18340;SDS011;9296;48.084;16.352;2023-09-18T04:35:00;16.20;;;14.07;;
18340;SDS011;9296;48.084;16.352;2023-09-18T04:37:27;17.60;;;14.13;;
18340;SDS011;9296;48.084;16.352;2023-09-18T04:39:54;16.88;;;13.75;;
18340;SDS011;9296;48.084;16.352;2023-09-18T04:42:21;16.80;;;14.10;;
18340;SDS011;9296;48.084;16.352;2023-09-18T04:44:48;16.73;;;14.20;;
18340;SDS011;9296;48.084;16.352;2023-09-18T04:47:16;18.05;;;14.55;;
18340;SDS011;9296;48.084;16.352;2023-09-18T04:49:44;19.83;;;15.15;;
18340;SDS011;9296;48.084;16.352;2023-09-18T04:52:12;20.25;;;15.93;;
18340;SDS011;9296;48.084;16.352;2023-09-18T04:54:39;18.48;;;15.55;;
18340;SDS011;9296;48.084;16.352;2023-09-18T04:59:53;18.25;;;15.25;;
18340;SDS011;9296;48.084;16.352;2023-09-18T05:02:20;17.63;;;15.38;;
18340;SDS011;9296;48.084;16.352;2023-09-18T05:04:51;21.00;;;16.90;;
18340;SDS011;9296;48.084;16.352;2023-09-18T05:07:20;20.90;;;18.00;;
18340;SDS011;9296;48.084;16.352;2023-09-18T05:09:47;23.55;;;16.33;;
18340;SDS011;9296;48.084;16.352;2023-09-18T05:12:14;20.20;;;15.90;;
18340;SDS011;9296;48.084;16.352;2023-09-18T05:14:41;19.50;;;16.05;;
18340;SDS011;9296;48.084;16.352;2023-09-18T05:17:09;17.10;;;14.93;;
18340;SDS011;9296;48.084;16.352;2023-09-18T05:19:37;19.83;;;15.13;;
18340;SDS011;9296;48.084;16.352;2023-09-18T05:22:06;19.10;;;15.02;;
18340;SDS011;9296;48.084;16.352;2023-09-18T05:24:33;16.48;;;14.20;;
18340;SDS011;9296;48.084;16.352;2023-09-18T05:27:00;16.55;;;14.48;;
18340;SDS011;9296;48.084;16.352;2023-09-18T05:29:28;15.60;;;13.95;;
18340;SDS011;9296;48.084;16.352;2023-09-18T05:31:55;16.35;;;13.35;;
18340;SDS011;9296;48.084;16.352;2023-09-18T05:34:22;15.10;;;13.50;;
18340;SDS011;9296;48.084;16.352;2023-09-18T05:36:49;14.48;;;12.85;;
18340;SDS011;9296;48.084;16.352;2023-09-18T05:39:18;15.38;;;13.40;;
18340;SDS011;9296;48.084;16.352;2023-09-18T05:41:45;15.63;;;13.80;;
18340;SDS011;9296;48.084;16.352;2023-09-18T05:44:12;14.20;;;12.57;;
18340;SDS011;9296;48.084;16.352;2023-09-18T05:46:39;14.88;;;13.27;;
18340;SDS011;9296;48.084;16.352;2023-09-18T05:49:06;17.08;;;14.30;;
18340;SDS011;9296;48.084;16.352;2023-09-18T05:51:34;14.50;;;12.93;;
18340;SDS011;9296;48.084;16.352;2023-09-18T05:54:01;15.88;;;13.50;;
18340;SDS011;9296;48.084;16.352;2023-09-18T05:56:29;15.35;;;13.23;;
18340;SDS011;9296;48.084;16.352;2023-09-18T05:58:56;16.10;;;13.65;;
18340;SDS011;9296;48.084;16.352;2023-09-18T06:01:24;15.02;;;12.85;;
18340;SDS011;9296;48.084;16.352;2023-09-18T06:03:51;16.27;;;13.18;;
18340;SDS011;9296;48.084;16.352;2023-09-18T06:06:18;15.35;;;12.88;;
18340;SDS011;9296;48.084;16.352;2023-09-18T06:08:45;17.42;;;13.27;;
18340;SDS011;9296;48.084;16.352;2023-09-18T06:11:12;16.90;;;12.93;;
18340;SDS011;9296;48.084;16.352;2023-09-18T06:13:41;15.20;;;13.25;;
18340;SDS011;9296;48.084;16.352;2023-09-18T06:16:08;14.75;;;13.23;;
18340;SDS011;9296;48.084;16.352;2023-09-18T06:18:35;15.73;;;13.48;;
18340;SDS011;9296;48.084;16.352;2023-09-18T06:21:03;14.13;;;12.00;;
18340;SDS011;9296;48.084;16.352;2023-09-18T06:23:30;17.40;;;12.77;;
18340;SDS011;9296;48.084;16.352;2023-09-18T06:25:58;15.50;;;11.93;;
18340;SDS011;9296;48.084;16.352;2023-09-18T06:28:26;13.80;;;12.13;;
18340;SDS011;9296;48.084;16.352;2023-09-18T06:30:55;15.05;;;11.90;;
18340;SDS011;9296;48.084;16.352;2023-09-18T06:33:22;12.40;;;10.77;;
18340;SDS011;9296;48.084;16.352;2023-09-18T06:35:49;12.98;;;11.60;;
18340;SDS011;9296;48.084;16.352;2023-09-18T06:38:17;12.70;;;11.30;;
18340;SDS011;9296;48.084;16.352;2023-09-18T06:40:45;12.27;;;10.77;;
18340;SDS011;9296;48.084;16.352;2023-09-18T06:43:12;11.50;;;10.25;;
18340;SDS011;9296;48.084;16.352;2023-09-18T06:45:39;11.85;;;10.65;;
18340;SDS011;9296;48.084;16.352;2023-09-18T06:48:08;12.25;;;11.05;;
18340;SDS011;9296;48.084;16.352;2023-09-18T06:50:35;13.18;;;9.57;;
18340;SDS011;9296;48.084;16.352;2023-09-18T06:53:03;11.20;;;9.50;;
18340;SDS011;9296;48.084;16.352;2023-09-18T06:55:31;11.60;;;9.40;;
18340;SDS011;9296;48.084;16.352;2023-09-18T06:57:58;9.98;;;8.98;;
18340;SDS011;9296;48.084;16.352;2023-09-18T07:00:25;10.35;;;9.35;;
18340;SDS011;9296;48.084;16.352;2023-09-18T07:02:52;11.70;;;8.52;;
18340;SDS011;9296;48.084;16.352;2023-09-18T07:05:21;10.07;;;8.82;;
18340;SDS011;9296;48.084;16.352;2023-09-18T07:07:49;9.75;;;8.75;;
18340;SDS011;9296;48.084;16.352;2023-09-18T07:10:16;9.27;;;8.38;;
18340;SDS011;9296;48.084;16.352;2023-09-18T07:13:02;10.63;;;8.90;;
18340;SDS011;9296;48.084;16.352;2023-09-18T07:15:29;12.63;;;8.68;;
18340;SDS011;9296;48.084;16.352;2023-09-18T07:17:57;10.63;;;7.97;;
18340;SDS011;9296;48.084;16.352;2023-09-18T07:20:25;8.25;;;7.47;;
18340;SDS011;9296;48.084;16.352;2023-09-18T07:22:53;10.85;;;7.82;;
18340;SDS011;9296;48.084;16.352;2023-09-18T07:25:20;9.75;;;7.72;;
18340;SDS011;9296;48.084;16.352;2023-09-18T07:27:47;10.10;;;7.25;;
18340;SDS011;9296;48.084;16.352;2023-09-18T07:30:15;9.82;;;7.15;;
18340;SDS011;9296;48.084;16.352;2023-09-18T07:32:44;8.20;;;7.40;;
18340;SDS011;9296;48.084;16.352;2023-09-18T07:35:12;7.97;;;7.13;;
18340;SDS011;9296;48.084;16.352;2023-09-18T07:37:41;9.23;;;7.30;;
18340;SDS011;9296;48.084;16.352;2023-09-18T07:40:10;9.10;;;6.75;;
18340;SDS011;9296;48.084;16.352;2023-09-18T07:45:23;7.72;;;6.93;;
18340;SDS011;9296;48.084;16.352;2023-09-18T07:47:51;8.25;;;6.72;;
18340;SDS011;9296;48.084;16.352;2023-09-18T07:50:19;7.18;;;6.50;;
18340;SDS011;9296;48.084;16.352;2023-09-18T07:52:47;10.52;;;6.65;;
18340;SDS011;9296;48.084;16.352;2023-09-18T07:55:14;7.22;;;6.03;;
18340;SDS011;9296;48.084;16.352;2023-09-18T07:57:57;7.03;;;6.32;;
18340;SDS011;9296;48.084;16.352;2023-09-18T08:00:24;6.80;;;6.20;;
18340;SDS011;9296;48.084;16.352;2023-09-18T08:02:52;6.93;;;6.30;;
18340;SDS011;9296;48.084;16.352;2023-09-18T08:05:23;6.10;;;5.50;;
18340;SDS011;9296;48.084;16.352;2023-09-18T08:07:54;7.18;;;5.95;;
18340;SDS011;9296;48.084;16.352;2023-09-18T08:10:22;8.52;;;5.80;;
18340;SDS011;9296;48.084;16.352;2023-09-18T08:15:52;7.45;;;5.50;;
18340;SDS011;9296;48.084;16.352;2023-09-18T08:18:19;6.10;;;5.50;;
18340;SDS011;9296;48.084;16.352;2023-09-18T08:20:47;8.98;;;5.78;;
18340;SDS011;9296;48.084;16.352;2023-09-18T08:23:15;6.43;;;5.75;;
18340;SDS011;9296;48.084;16.352;2023-09-18T08:25:42;10.20;;;5.10;;
18340;SDS011;9296;48.084;16.352;2023-09-18T08:28:28;7.60;;;5.10;;
18340;SDS011;9296;48.084;16.352;2023-09-18T08:30:55;6.38;;;4.63;;
18340;SDS011;9296;48.084;16.352;2023-09-18T08:33:23;7.80;;;4.80;;
18340;SDS011;9296;48.084;16.352;2023-09-18T08:35:51;9.13;;;5.65;;
18340;SDS011;9296;48.084;16.352;2023-09-18T08:38:19;6.13;;;4.45;;
18340;SDS011;9296;48.084;16.352;2023-09-18T08:40:46;5.35;;;4.85;;
18340;SDS011;9296;48.084;16.352;2023-09-18T08:43:14;8.73;;;4.30;;
18340;SDS011;9296;48.084;16.352;2023-09-18T08:45:43;5.30;;;4.82;;
18340;SDS011;9296;48.084;16.352;2023-09-18T08:48:11;8.00;;;4.95;;
18340;SDS011;9296;48.084;16.352;2023-09-18T08:50:38;7.70;;;4.70;;
18340;SDS011;9296;48.084;16.352;2023-09-18T08:53:06;5.82;;;5.10;;
18340;SDS011;9296;48.084;16.352;2023-09-18T08:55:35;6.78;;;4.80;;
18340;SDS011;9296;48.084;16.352;2023-09-18T08:58:02;10.35;;;4.90;;
18340;SDS011;9296;48.084;16.352;2023-09-18T09:00:29;5.60;;;5.00;;
18340;SDS011;9296;48.084;16.352;2023-09-18T09:02:57;8.88;;;4.93;;
18340;SDS011;9296;48.084;16.352;2023-09-18T09:05:24;5.53;;;5.00;;
18340;SDS011;9296;48.084;16.352;2023-09-18T09:07:51;8.93;;;5.05;;
18340;SDS011;9296;48.084;16.352;2023-09-18T09:10:19;5.75;;;4.78;;
18340;SDS011;9296;48.084;16.352;2023-09-18T09:12:49;6.50;;;4.70;;
18340;SDS011;9296;48.084;16.352;2023-09-18T09:15:16;6.50;;;4.85;;
18340;SDS011;9296;48.084;16.352;2023-09-18T09:17:43;8.35;;;5.03;;
18340;SDS011;9296;48.084;16.352;2023-09-18T09:20:11;5.25;;;4.75;;
18340;SDS011;9296;48.084;16.352;2023-09-18T09:22:39;6.85;;;4.88;;
18340;SDS011;9296;48.084;16.352;2023-09-18T09:25:21;6.88;;;4.70;;
18340;SDS011;9296;48.084;16.352;2023-09-18T09:33:40;5.68;;;4.63;;
18340;SDS011;9296;48.084;16.352;2023-09-18T09:36:17;8.25;;;4.47;;
18340;SDS011;9296;48.084;16.352;2023-09-18T09:38:44;7.95;;;4.68;;
18340;SDS011;9296;48.084;16.352;2023-09-18T09:41:13;7.32;;;4.53;;
18340;SDS011;9296;48.084;16.352;2023-09-18T09:43:41;7.63;;;4.60;;
18340;SDS011;9296;48.084;16.352;2023-09-18T09:46:14;7.82;;;4.70;;
18340;SDS011;9296;48.084;16.352;2023-09-18T09:51:27;9.20;;;4.47;;
18340;SDS011;9296;48.084;16.352;2023-09-18T09:53:54;8.48;;;4.90;;
18340;SDS011;9296;48.084;16.352;2023-09-18T10:02:09;7.97;;;4.30;;
18340;SDS011;9296;48.084;16.352;2023-09-18T10:04:37;6.80;;;4.07;;
18340;SDS011;9296;48.084;16.352;2023-09-18T10:07:07;9.50;;;4.30;;
18340;SDS011;9296;48.084;16.352;2023-09-18T10:09:34;5.88;;;4.28;;
18340;SDS011;9296;48.084;16.352;2023-09-18T10:12:03;5.40;;;4.05;;
18340;SDS011;9296;48.084;16.352;2023-09-18T10:14:33;8.32;;;4.18;;
18340;SDS011;9296;48.084;16.352;2023-09-18T10:17:03;8.77;;;4.30;;
18340;SDS011;9296;48.084;16.352;2023-09-18T10:19:33;8.52;;;4.07;;
18340;SDS011;9296;48.084;16.352;2023-09-18T10:22:09;7.25;;;4.40;;
18340;SDS011;9296;48.084;16.352;2023-09-18T10:24:41;6.57;;;3.85;;
18340;SDS011;9296;48.084;16.352;2023-09-18T10:27:12;9.23;;;4.53;;
18340;SDS011;9296;48.084;16.352;2023-09-18T10:32:44;8.40;;;4.75;;
18340;SDS011;9296;48.084;16.352;2023-09-18T10:35:14;7.32;;;4.35;;
18340;SDS011;9296;48.084;16.352;2023-09-18T10:37:43;5.55;;;4.05;;
18340;SDS011;9296;48.084;16.352;2023-09-18T10:40:10;8.45;;;4.30;;
18340;SDS011;9296;48.084;16.352;2023-09-18T10:42:54;9.60;;;4.65;;
18340;SDS011;9296;48.084;16.352;2023-09-18T10:45:21;8.27;;;4.50;;
18340;SDS011;9296;48.084;16.352;2023-09-18T10:47:48;6.72;;;4.40;;
18340;SDS011;9296;48.084;16.352;2023-09-18T10:50:22;6.10;;;4.50;;
18340;SDS011;9296;48.084;16.352;2023-09-18T10:52:51;8.57;;;4.57;;
18340;SDS011;9296;48.084;16.352;2023-09-18T10:55:18;6.47;;;4.95;;
18340;SDS011;9296;48.084;16.352;2023-09-18T11:03:57;6.90;;;4.55;;
18340;SDS011;9296;48.084;16.352;2023-09-18T11:06:26;6.35;;;4.53;;
18340;SDS011;9296;48.084;16.352;2023-09-18T11:09:00;5.95;;;4.60;;
18340;SDS011;9296;48.084;16.352;2023-09-18T11:11:29;6.40;;;4.60;;
18340;SDS011;9296;48.084;16.352;2023-09-18T11:19:55;7.53;;;4.20;;
18340;SDS011;9296;48.084;16.352;2023-09-18T11:22:30;9.48;;;4.50;;
18340;SDS011;9296;48.084;16.352;2023-09-18T11:33:46;6.65;;;4.85;;
18340;SDS011;9296;48.084;16.352;2023-09-18T11:36:14;10.05;;;4.90;;
18340;SDS011;9296;48.084;16.352;2023-09-18T11:38:51;5.15;;;4.65;;
18340;SDS011;9296;48.084;16.352;2023-09-18T11:41:19;6.55;;;4.18;;
18340;SDS011;9296;48.084;16.352;2023-09-18T11:47:08;8.15;;;5.10;;
18340;SDS011;9296;48.084;16.352;2023-09-18T11:49:43;8.70;;;4.90;;
18340;SDS011;9296;48.084;16.352;2023-09-18T11:52:14;6.95;;;5.00;;
18340;SDS011;9296;48.084;16.352;2023-09-18T11:54:42;6.90;;;4.88;;
18340;SDS011;9296;48.084;16.352;2023-09-18T11:57:10;5.55;;;4.55;;
18340;SDS011;9296;48.084;16.352;2023-09-18T12:02:41;8.38;;;4.78;;
18340;SDS011;9296;48.084;16.352;2023-09-18T12:05:14;8.57;;;4.80;;
18340;SDS011;9296;48.084;16.352;2023-09-18T12:07:42;8.52;;;4.90;;
18340;SDS011;9296;48.084;16.352;2023-09-18T12:10:11;7.25;;;5.00;;
18340;SDS011;9296;48.084;16.352;2023-09-18T12:12:38;7.57;;;4.80;;
18340;SDS011;9296;48.084;16.352;2023-09-18T12:18:09;7.00;;;4.60;;
18340;SDS011;9296;48.084;16.352;2023-09-18T12:20:38;10.13;;;4.68;;
18340;SDS011;9296;48.084;16.352;2023-09-18T12:23:11;7.13;;;4.53;;
18340;SDS011;9296;48.084;16.352;2023-09-18T12:25:38;9.48;;;4.70;;
18340;SDS011;9296;48.084;16.352;2023-09-18T12:34:16;8.65;;;5.15;;
18340;SDS011;9296;48.084;16.352;2023-09-18T12:36:46;10.32;;;4.85;;
18340;SDS011;9296;48.084;16.352;2023-09-18T12:39:13;11.98;;;5.25;;
18340;SDS011;9296;48.084;16.352;2023-09-18T12:41:41;7.75;;;4.57;;
18340;SDS011;9296;48.084;16.352;2023-09-18T12:44:09;11.57;;;5.35;;
18340;SDS011;9296;48.084;16.352;2023-09-18T12:46:37;6.38;;;4.65;;
18340;SDS011;9296;48.084;16.352;2023-09-18T12:49:15;10.90;;;5.30;;
18340;SDS011;9296;48.084;16.352;2023-09-18T12:51:42;9.10;;;5.50;;
18340;SDS011;9296;48.084;16.352;2023-09-18T12:54:12;7.47;;;5.10;;
18340;SDS011;9296;48.084;16.352;2023-09-18T12:56:41;12.82;;;4.80;;
18340;SDS011;9296;48.084;16.352;2023-09-18T13:05:07;10.88;;;5.60;;
18340;SDS011;9296;48.084;16.352;2023-09-18T13:07:42;6.97;;;5.22;;
18340;SDS011;9296;48.084;16.352;2023-09-18T13:10:11;8.20;;;5.20;;
18340;SDS011;9296;48.084;16.352;2023-09-18T13:12:40;8.57;;;5.40;;
18340;SDS011;9296;48.084;16.352;2023-09-18T13:15:08;12.48;;;5.55;;
18340;SDS011;9296;48.084;16.352;2023-09-18T13:17:40;9.10;;;5.60;;
18340;SDS011;9296;48.084;16.352;2023-09-18T13:20:10;6.35;;;5.32;;
18340;SDS011;9296;48.084;16.352;2023-09-18T13:22:38;11.07;;;5.63;;
18340;SDS011;9296;48.084;16.352;2023-09-18T13:25:06;8.55;;;5.57;;
18340;SDS011;9296;48.084;16.352;2023-09-18T13:27:34;8.15;;;4.97;;
18340;SDS011;9296;48.084;16.352;2023-09-18T13:30:02;11.63;;;5.63;;
18340;SDS011;9296;48.084;16.352;2023-09-18T13:32:32;12.25;;;5.68;;
18340;SDS011;9296;48.084;16.352;2023-09-18T13:34:59;10.05;;;5.57;;
18340;SDS011;9296;48.084;16.352;2023-09-18T13:37:26;9.35;;;5.60;;
18340;SDS011;9296;48.084;16.352;2023-09-18T13:39:54;13.73;;;6.18;;
18340;SDS011;9296;48.084;16.352;2023-09-18T13:42:21;13.68;;;5.70;;
18340;SDS011;9296;48.084;16.352;2023-09-18T13:44:50;12.57;;;5.63;;
18340;SDS011;9296;48.084;16.352;2023-09-18T13:47:18;13.43;;;6.30;;
18340;SDS011;9296;48.084;16.352;2023-09-18T13:49:46;14.60;;;5.88;;
18340;SDS011;9296;48.084;16.352;2023-09-18T13:52:13;10.98;;;6.05;;
18340;SDS011;9296;48.084;16.352;2023-09-18T13:54:41;11.45;;;6.10;;
18340;SDS011;9296;48.084;16.352;2023-09-18T13:57:08;14.68;;;6.13;;
18340;SDS011;9296;48.084;16.352;2023-09-18T13:59:35;13.18;;;5.70;;
18340;SDS011;9296;48.084;16.352;2023-09-18T14:02:04;13.27;;;5.57;;
18340;SDS011;9296;48.084;16.352;2023-09-18T14:04:31;12.30;;;6.07;;
18340;SDS011;9296;48.084;16.352;2023-09-18T14:06:59;11.25;;;6.03;;
18340;SDS011;9296;48.084;16.352;2023-09-18T14:09:27;9.93;;;6.25;;
18340;SDS011;9296;48.084;16.352;2023-09-18T14:11:55;10.30;;;5.57;;
18340;SDS011;9296;48.084;16.352;2023-09-18T14:17:27;8.95;;;6.30;;
18340;SDS011;9296;48.084;16.352;2023-09-18T14:19:54;14.63;;;6.05;;
18340;SDS011;9296;48.084;16.352;2023-09-18T14:22:23;12.30;;;5.93;;
18340;SDS011;9296;48.084;16.352;2023-09-18T14:24:52;15.80;;;6.43;;
18340;SDS011;9296;48.084;16.352;2023-09-18T14:27:19;12.23;;;6.13;;
18340;SDS011;9296;48.084;16.352;2023-09-18T14:29:46;11.40;;;5.85;;
18340;SDS011;9296;48.084;16.352;2023-09-18T14:32:13;10.25;;;5.47;;
18340;SDS011;9296;48.084;16.352;2023-09-18T14:34:42;12.25;;;6.10;;
18340;SDS011;9296;48.084;16.352;2023-09-18T14:37:10;12.13;;;5.95;;
18340;SDS011;9296;48.084;16.352;2023-09-18T14:39:39;17.13;;;6.22;;
18340;SDS011;9296;48.084;16.352;2023-09-18T14:42:06;15.73;;;5.78;;
18340;SDS011;9296;48.084;16.352;2023-09-18T14:44:52;16.35;;;6.35;;
18340;SDS011;9296;48.084;16.352;2023-09-18T14:47:20;14.55;;;5.80;;
18340;SDS011;9296;48.084;16.352;2023-09-18T14:49:48;7.18;;;5.60;;
18340;SDS011;9296;48.084;16.352;2023-09-18T14:52:15;14.23;;;6.22;;
18340;SDS011;9296;48.084;16.352;2023-09-18T14:54:43;15.00;;;6.00;;
18340;SDS011;9296;48.084;16.352;2023-09-18T14:57:10;12.50;;;5.65;;
18340;SDS011;9296;48.084;16.352;2023-09-18T15:05:35;12.15;;;5.63;;
18340;SDS011;9296;48.084;16.352;2023-09-18T15:08:03;13.85;;;5.80;;
18340;SDS011;9296;48.084;16.352;2023-09-18T15:10:31;10.02;;;6.00;;
18340;SDS011;9296;48.084;16.352;2023-09-18T15:12:58;12.85;;;5.97;;
18340;SDS011;9296;48.084;16.352;2023-09-18T15:18:29;9.88;;;5.50;;
18340;SDS011;9296;48.084;16.352;2023-09-18T15:20:57;12.18;;;5.85;;
18340;SDS011;9296;48.084;16.352;2023-09-18T15:23:25;9.32;;;5.68;;
18340;SDS011;9296;48.084;16.352;2023-09-18T15:25:54;10.05;;;6.32;;
18340;SDS011;9296;48.084;16.352;2023-09-18T15:28:22;12.15;;;5.90;;
18340;SDS011;9296;48.084;16.352;2023-09-18T15:30:50;11.35;;;5.85;;
18340;SDS011;9296;48.084;16.352;2023-09-18T15:33:17;13.77;;;6.22;;
18340;SDS011;9296;48.084;16.352;2023-09-18T15:35:47;10.82;;;6.38;;
18340;SDS011;9296;48.084;16.352;2023-09-18T15:38:16;10.88;;;6.20;;
18340;SDS011;9296;48.084;16.352;2023-09-18T15:40:43;6.70;;;5.57;;
18340;SDS011;9296;48.084;16.352;2023-09-18T15:43:10;11.35;;;5.72;;
18340;SDS011;9296;48.084;16.352;2023-09-18T15:48:24;9.77;;;6.30;;
18340;SDS011;9296;48.084;16.352;2023-09-18T15:50:52;11.93;;;5.97;;
18340;SDS011;9296;48.084;16.352;2023-09-18T15:53:21;10.52;;;6.13;;
18340;SDS011;9296;48.084;16.352;2023-09-18T15:55:48;9.00;;;5.90;;
18340;SDS011;9296;48.084;16.352;2023-09-18T15:58:15;12.63;;;6.78;;
18340;SDS011;9296;48.084;16.352;2023-09-18T16:03:48;12.43;;;6.47;;
18340;SDS011;9296;48.084;16.352;2023-09-18T16:06:18;13.02;;;6.57;;
18340;SDS011;9296;48.084;16.352;2023-09-18T16:08:47;10.10;;;6.63;;